Weather at Kemmerer Municipal Airport

Public forecast

Using degrees Fahrenheit for public forecast. Weather courtesy of forecast.io.

Current aviation weather report (METAR) for Kemmerer Municipal Airport

Report is more than 6 hours old.

Retrieved 2021/06/15 18:35 UTC (5 days ago):

KEMM 151835Z AUTO 22016G27KT 10SM CLR 30/M07 A3033 RMK AO2

Closest aviation forecast (TAF) to Kemmerer Municipal Airport

Closest forecast is Evanston-Uinta County Airport-Burns Field, 39.4 nm (72.9 km) SSW. Retrieved 2021-06-21 00:24 UTC (2 hours ago):

TAF TAF KEVW 202345Z 2100/2124 27016G28KT P6SM SKC FM210200 31017G28KT P6SM SKC FM210400 34010KT P6SM SKC FM210700 07008KT P6SM SKC FM211900 27010KT P6SM SKC